In Rescue
 
Open Full Screen Window  High Contrast Mode
Wind Gusting 16 knots
10
April 20, 2024 8:26 AM EDT
Weather Information
Wind Direction
  310 °
Wind Speed
  10 kt (12 mph)
Wind Gust
  16 kt (18 mph)
Altimeter
30.13 in
Visibility
10 SM
Temperature
07° C
45° F
Dewpoint
-01° C
30° F
Humidity
57%
Sky Condition
Clear
VFR

METAR KDLZ 201226Z AUTO 31010G16KT 10SM CLR 07/M01 A3013 RMK AO2

FAA Disclaimer: The data displayed is for advisory purposes only and is not to be used for flight planning or operations.